Time;durP1;ratioP1;P1;durP2;ratioP2;P2;SDS_P1;SDS_P2;PMS_P1;PMS_P2;Temp;Humidity;BMP_temperature;BMP_pressure;BME280_temperature;BME280_humidity;BME280_pressure;Samples;Min_cycle;Max_cycle;Signal;HPM_P1;HPM_P2
2021/09/15 00:02:23;;;;;;;31.60;26.98;;;18.40;99.90;;;;;;4816887;29;20094;-85
2021/09/15 00:04:49;;;;;;;30.20;26.35;;;18.30;99.90;;;;;;4840991;29;20411;-85
2021/09/15 00:07:15;;;;;;;30.65;26.92;;;18.50;99.90;;;;;;4856911;29;20475;-85
2021/09/15 00:09:40;;;;;;;29.30;26.02;;;18.40;99.90;;;;;;4838389;29;20116;-85
2021/09/15 00:12:09;;;;;;;30.95;26.58;;;18.30;99.90;;;;;;4859053;29;20045;-85
2021/09/15 00:14:35;;;;;;;32.75;27.55;;;18.30;99.90;;;;;;4840324;29;20429;-85
2021/09/15 00:17:00;;;;;;;32.08;26.98;;;18.30;99.90;;;;;;4854603;29;20105;-85
2021/09/15 00:19:26;;;;;;;31.15;27.80;;;18.30;99.90;;;;;;4858150;29;20041;-85
2021/09/15 00:21:52;;;;;;;31.95;27.65;;;18.00;99.90;;;;;;4844033;29;20569;-85
2021/09/15 00:24:23;;;;;;;30.60;26.83;;;18.30;99.90;;;;;;4840138;29;20394;-85
2021/09/15 00:26:50;;;;;;;30.83;27.38;;;18.30;99.90;;;;;;4827767;29;20093;-86
2021/09/15 00:29:16;;;;;;;32.08;27.48;;;18.10;99.90;;;;;;4859133;29;20052;-85
2021/09/15 00:31:42;;;;;;;31.02;27.75;;;18.30;99.90;;;;;;4843947;29;20037;-84
2021/09/15 00:34:08;;;;;;;31.13;26.83;;;18.30;99.90;;;;;;4858399;29;20076;-85
2021/09/15 00:36:33;;;;;;;32.17;27.33;;;18.30;99.90;;;;;;4859580;29;20045;-86
2021/09/15 00:38:59;;;;;;;31.02;25.33;;;18.30;99.90;;;;;;4860747;29;20047;-86
2021/09/15 00:41:25;;;;;;;36.17;28.63;;;18.30;99.90;;;;;;4839064;29;20071;-86
2021/09/15 00:44:01;;;;;;;30.02;25.40;;;18.30;99.90;;;;;;4836923;29;20502;-86
2021/09/15 00:46:28;;;;;;;30.00;26.80;;;18.30;99.90;;;;;;4843252;29;20097;-86
2021/09/15 00:48:54;;;;;;;30.05;25.33;;;18.30;99.90;;;;;;4844080;29;20091;-85
2021/09/15 00:51:20;;;;;;;32.25;27.83;;;18.30;99.90;;;;;;4843862;29;20046;-86
2021/09/15 00:53:47;;;;;;;30.95;26.67;;;18.30;99.90;;;;;;4858891;29;20049;-86
2021/09/15 00:56:12;;;;;;;30.88;26.75;;;18.30;99.90;;;;;;4857700;29;20104;-85
2021/09/15 00:58:40;;;;;;;30.67;26.55;;;18.30;99.90;;;;;;4856036;29;20054;-85
2021/09/15 01:01:06;;;;;;;31.38;27.95;;;18.30;99.90;;;;;;4858562;29;20049;-86
2021/09/15 01:03:32;;;;;;;29.80;26.65;;;18.30;99.90;;;;;;4843126;29;20056;-85
2021/09/15 01:05:58;;;;;;;30.00;26.88;;;18.30;99.90;;;;;;4838194;29;20042;-85
2021/09/15 01:08:25;;;;;;;34.13;29.00;;;18.50;99.90;;;;;;4839331;29;20045;-86
2021/09/15 01:10:52;;;;;;;35.67;28.58;;;18.30;99.90;;;;;;4839211;29;20091;-85
2021/09/15 01:13:18;;;;;;;35.47;28.73;;;18.30;99.90;;;;;;4858858;29;20131;-86
2021/09/15 01:15:44;;;;;;;35.22;29.90;;;18.30;99.90;;;;;;4834464;29;20046;-86
2021/09/15 01:18:14;;;;;;;38.22;29.90;;;18.30;99.90;;;;;;4858726;29;20050;-86
2021/09/15 01:20:40;;;;;;;37.53;29.00;;;18.30;99.90;;;;;;4861592;29;20406;-86
2021/09/15 01:23:05;;;;;;;34.97;28.70;;;18.50;99.90;;;;;;4857849;29;20046;-85
2021/09/15 01:25:31;;;;;;;31.67;28.25;;;18.10;99.90;;;;;;4836237;29;20445;-85
2021/09/15 01:27:57;;;;;;;35.65;29.48;;;18.20;99.90;;;;;;4861932;29;20085;-86
2021/09/15 01:30:23;;;;;;;34.40;29.77;;;18.20;99.90;;;;;;4832124;29;20098;-86
2021/09/15 01:32:48;;;;;;;34.50;29.02;;;18.20;99.90;;;;;;4845551;29;20045;-86
2021/09/15 01:35:14;;;;;;;31.27;27.90;;;18.20;99.90;;;;;;4861153;29;20493;-86
2021/09/15 01:37:40;;;;;;;32.80;27.52;;;18.20;99.90;;;;;;4846388;29;20049;-86
2021/09/15 01:40:06;;;;;;;33.47;28.23;;;18.20;99.90;;;;;;4820936;29;20105;-86
2021/09/15 01:42:32;;;;;;;31.67;28.17;;;18.20;99.90;;;;;;4845497;29;20399;-86
2021/09/15 01:44:58;;;;;;;34.55;29.63;;;18.20;99.90;;;;;;4830483;29;20040;-87
2021/09/15 01:47:24;;;;;;;33.13;29.48;;;18.20;99.90;;;;;;4845986;29;20045;-86
2021/09/15 01:49:50;;;;;;;33.42;28.63;;;18.20;99.90;;;;;;4860677;29;20046;-87
2021/09/15 01:52:16;;;;;;;37.10;29.92;;;18.20;99.90;;;;;;4830975;29;20124;-85
2021/09/15 01:54:43;;;;;;;38.65;29.77;;;18.20;99.90;;;;;;4859874;29;20045;-85
2021/09/15 01:57:09;;;;;;;34.00;29.45;;;18.20;99.90;;;;;;4833552;29;20072;-80
2021/09/15 01:59:35;;;;;;;33.38;29.13;;;18.20;99.90;;;;;;4861163;29;20153;-80
2021/09/15 02:02:01;;;;;;;34.80;30.42;;;18.20;99.90;;;;;;4860651;29;20052;-80
2021/09/15 02:04:26;;;;;;;38.30;30.77;;;18.20;99.90;;;;;;4861039;29;20113;-80
2021/09/15 02:06:53;;;;;;;33.40;29.65;;;18.20;99.90;;;;;;4860861;29;20045;-80
2021/09/15 02:09:19;;;;;;;36.22;28.80;;;18.20;99.90;;;;;;4838753;29;20121;-80
2021/09/15 02:11:44;;;;;;;33.88;29.08;;;18.20;99.90;;;;;;4842608;29;20511;-78
2021/09/15 02:14:10;;;;;;;35.63;30.27;;;18.10;99.90;;;;;;4833679;29;20042;-78
2021/09/15 02:16:36;;;;;;;39.30;29.70;;;18.50;99.90;;;;;;4853104;29;20060;-78
2021/09/15 02:19:02;;;;;;;43.92;31.52;;;18.10;99.90;;;;;;4860458;29;20375;-78
2021/09/15 02:21:28;;;;;;;35.63;30.90;;;18.20;99.90;;;;;;4860645;29;20049;-78
2021/09/15 02:23:55;;;;;;;36.67;30.00;;;18.10;99.90;;;;;;4860453;29;20049;-78
2021/09/15 02:26:21;;;;;;;39.88;31.10;;;18.10;99.90;;;;;;4836693;29;20112;-78
2021/09/15 02:28:47;;;;;;;37.70;30.30;;;18.10;99.90;;;;;;4861576;29;20125;-78
2021/09/15 02:31:13;;;;;;;45.80;32.40;;;18.10;99.90;;;;;;4841792;29;20124;-77
2021/09/15 02:33:39;;;;;;;38.30;30.65;;;18.10;99.90;;;;;;4832767;29;20043;-77
2021/09/15 02:36:05;;;;;;;40.05;32.53;;;18.10;99.90;;;;;;4830309;29;20049;-77
2021/09/15 02:38:31;;;;;;;39.30;32.47;;;18.10;99.90;;;;;;4859828;29;20406;-77
2021/09/15 02:40:57;;;;;;;39.40;33.90;;;18.10;99.90;;;;;;4845247;29;20042;-77
2021/09/15 02:43:22;;;;;;;36.95;31.40;;;18.00;99.90;;;;;;4855471;29;20048;-78
2021/09/15 02:45:49;;;;;;;41.90;33.67;;;18.00;99.90;;;;;;4851479;29;20077;-78
2021/09/15 02:48:15;;;;;;;47.65;35.28;;;18.00;99.90;;;;;;4858731;29;20081;-79
2021/09/15 02:50:41;;;;;;;43.30;34.70;;;18.00;99.90;;;;;;4844561;29;20375;-79
2021/09/15 02:53:09;;;;;;;42.03;34.00;;;18.10;99.90;;;;;;4843557;29;20050;-79
2021/09/15 02:55:35;;;;;;;40.00;33.72;;;18.00;99.90;;;;;;4835288;29;20380;-79
2021/09/15 02:58:00;;;;;;;45.78;35.20;;;18.00;99.90;;;;;;4860068;29;20065;-79
2021/09/15 03:00:26;;;;;;;42.95;35.47;;;18.00;99.90;;;;;;4840802;29;20092;-79
2021/09/15 03:02:52;;;;;;;45.70;38.20;;;18.00;99.90;;;;;;4835763;29;20414;-79
2021/09/15 03:05:17;;;;;;;45.05;35.42;;;18.00;99.90;;;;;;4844531;29;20136;-79
2021/09/15 03:07:43;;;;;;;45.00;36.03;;;18.00;99.90;;;;;;4860176;29;20037;-79
2021/09/15 03:10:09;;;;;;;41.92;35.88;;;18.10;99.90;;;;;;4844920;29;20124;-79
2021/09/15 03:12:35;;;;;;;45.70;36.58;;;18.00;99.90;;;;;;4859179;29;20041;-79
2021/09/15 03:15:01;;;;;;;46.10;38.40;;;18.00;99.90;;;;;;4843264;29;20397;-79
2021/09/15 03:17:27;;;;;;;48.08;38.28;;;18.00;99.90;;;;;;4844348;29;20049;-78
2021/09/15 03:19:53;;;;;;;49.75;39.45;;;18.00;99.90;;;;;;4859328;29;20056;-78
2021/09/15 03:22:18;;;;;;;46.65;39.03;;;17.90;99.90;;;;;;4859554;29;20049;-79
2021/09/15 03:24:44;;;;;;;51.90;38.58;;;18.00;99.90;;;;;;4858730;29;20120;-79
2021/09/15 03:27:10;;;;;;;50.85;40.78;;;17.90;99.90;;;;;;4847291;29;20042;-78
2021/09/15 03:29:36;;;;;;;50.90;39.35;;;17.90;99.90;;;;;;4847143;29;20113;-78
2021/09/15 03:32:02;;;;;;;54.50;41.90;;;17.90;99.90;;;;;;4858634;29;20394;-78
2021/09/15 03:34:27;;;;;;;48.15;40.10;;;17.90;99.90;;;;;;4832344;29;20056;-78
2021/09/15 03:36:53;;;;;;;53.20;41.67;;;17.90;99.90;;;;;;4859495;29;20060;-78
2021/09/15 03:39:22;;;;;;;51.65;39.90;;;18.00;99.90;;;;;;4843310;29;20543;-78
2021/09/15 03:41:50;;;;;;;52.78;42.08;;;18.00;99.90;;;;;;4843745;29;20537;-78
2021/09/15 03:44:16;;;;;;;56.92;41.03;;;17.90;99.90;;;;;;4843724;29;20085;-78
2021/09/15 03:46:44;;;;;;;54.55;43.17;;;17.90;99.90;;;;;;4843094;29;20037;-79
2021/09/15 03:49:10;;;;;;;55.67;42.85;;;17.90;99.90;;;;;;4860754;29;20041;-79
2021/09/15 03:51:35;;;;;;;53.00;40.78;;;17.90;99.90;;;;;;4843398;29;20037;-79
2021/09/15 03:54:01;;;;;;;55.63;43.63;;;17.80;99.90;;;;;;4857174;29;20054;-80
2021/09/15 03:56:27;;;;;;;51.63;41.72;;;17.80;99.90;;;;;;4843877;29;20546;-80
2021/09/15 03:58:52;;;;;;;49.95;41.78;;;17.90;99.90;;;;;;4855120;29;20109;-80
2021/09/15 04:01:18;;;;;;;55.75;43.60;;;17.80;99.90;;;;;;4843632;29;20053;-80
2021/09/15 04:03:44;;;;;;;61.42;46.38;;;17.90;99.90;;;;;;4857412;29;20056;-80
2021/09/15 04:06:09;;;;;;;54.05;42.92;;;17.80;99.90;;;;;;4854728;29;20375;-80
2021/09/15 04:08:35;;;;;;;55.03;44.33;;;17.80;99.90;;;;;;4859027;29;20037;-79
2021/09/15 04:11:01;;;;;;;53.47;43.70;;;17.80;99.90;;;;;;4854575;29;20054;-79
2021/09/15 04:13:27;;;;;;;55.25;43.58;;;17.80;99.90;;;;;;4859168;29;20049;-78
2021/09/15 04:15:52;;;;;;;55.55;43.67;;;17.80;99.90;;;;;;4853555;29;20562;-78
2021/09/15 04:18:18;;;;;;;56.15;44.15;;;17.80;99.90;;;;;;4858997;29;20045;-78
2021/09/15 04:20:45;;;;;;;60.88;46.20;;;17.80;99.90;;;;;;4855129;29;20046;-78
2021/09/15 04:23:16;;;;;;;61.45;45.67;;;17.90;99.90;;;;;;4858495;29;20056;-79
2021/09/15 04:31:26;;;;;;;58.42;45.55;;;17.80;99.90;;;;;;4840077;29;20498;-79
2021/09/15 04:33:52;;;;;;;64.55;49.45;;;17.80;99.90;;;;;;4841723;29;20053;-79
2021/09/15 04:36:19;;;;;;;61.55;46.97;;;17.80;99.90;;;;;;4839332;29;20411;-79
2021/09/15 04:38:45;;;;;;;58.83;45.40;;;17.90;99.90;;;;;;4853674;29;20049;-79
2021/09/15 04:41:11;;;;;;;66.10;49.03;;;17.80;99.90;;;;;;4821253;29;20068;-79
2021/09/15 04:43:37;;;;;;;64.85;48.15;;;17.80;99.90;;;;;;4858971;29;20495;-79
2021/09/15 04:46:02;;;;;;;63.63;48.53;;;17.80;99.90;;;;;;4827709;29;20053;-79
2021/09/15 04:48:28;;;;;;;64.18;49.33;;;17.80;99.90;;;;;;4858439;29;20038;-79
2021/09/15 04:50:54;;;;;;;62.15;49.80;;;17.80;99.90;;;;;;4859141;29;20410;-79
2021/09/15 04:53:20;;;;;;;67.13;51.42;;;17.70;99.90;;;;;;4858142;29;20049;-78
2021/09/15 04:55:46;;;;;;;62.45;48.88;;;17.70;99.90;;;;;;4845439;29;20046;-78
2021/09/15 04:58:12;;;;;;;66.05;48.92;;;17.70;99.90;;;;;;4846645;29;20062;-78
2021/09/15 05:00:38;;;;;;;62.63;48.10;;;17.70;99.90;;;;;;4862411;29;20045;-78
2021/09/15 05:03:04;;;;;;;62.80;48.38;;;17.70;99.90;;;;;;4827180;29;20105;-79
2021/09/15 05:05:29;;;;;;;64.55;49.50;;;17.70;99.90;;;;;;4830715;29;20043;-79
2021/09/15 05:07:55;;;;;;;67.32;49.50;;;17.70;99.90;;;;;;4840143;29;20448;-78
2021/09/15 05:10:24;;;;;;;68.88;50.22;;;17.70;99.90;;;;;;4858337;29;20045;-79
2021/09/15 05:12:57;;;;;;;71.78;52.72;;;17.70;99.90;;;;;;4861767;29;20113;-79
2021/09/15 05:15:24;;;;;;;68.93;51.33;;;17.70;99.90;;;;;;4862089;29;20045;-79
2021/09/15 05:17:54;;;;;;;68.82;51.72;;;17.70;99.90;;;;;;4846641;29;20053;-79
2021/09/15 05:20:19;;;;;;;69.38;51.65;;;17.60;99.90;;;;;;4862265;29;20030;-79
2021/09/15 05:22:51;;;;;;;68.35;50.40;;;17.60;99.90;;;;;;4861634;29;20053;-80
2021/09/15 05:25:18;;;;;;;69.78;50.75;;;17.60;99.90;;;;;;4834868;29;20053;-80
2021/09/15 05:27:47;;;;;;;72.97;53.30;;;17.70;99.90;;;;;;4858083;29;20129;-80
2021/09/15 05:30:14;;;;;;;67.93;52.22;;;17.60;99.90;;;;;;4860018;29;20120;-80
2021/09/15 05:32:41;;;;;;;71.68;53.28;;;17.60;99.90;;;;;;4852111;29;20041;-80
2021/09/15 05:35:09;;;;;;;73.15;52.88;;;17.60;99.90;;;;;;4861631;29;20081;-79
2021/09/15 05:37:35;;;;;;;67.20;50.45;;;17.70;99.90;;;;;;4844673;29;20052;-80
2021/09/15 05:40:01;;;;;;;73.20;53.00;;;17.60;99.90;;;;;;4834768;29;20057;-80
2021/09/15 05:42:27;;;;;;;74.30;52.47;;;17.70;99.90;;;;;;4854262;29;20108;-80
2021/09/15 05:44:53;;;;;;;67.35;51.15;;;17.70;99.90;;;;;;4840740;29;20077;-80
2021/09/15 05:47:19;;;;;;;74.57;53.00;;;17.70;99.90;;;;;;4844855;29;20403;-82
2021/09/15 05:49:45;;;;;;;66.68;50.85;;;17.70;99.90;;;;;;4856734;29;20037;-82
2021/09/15 05:52:11;;;;;;;70.38;51.25;;;18.00;99.90;;;;;;4857321;29;20399;-83
2021/09/15 05:54:37;;;;;;;73.20;52.78;;;17.70;99.90;;;;;;4844769;29;20053;-84
2021/09/15 05:57:02;;;;;;;72.00;51.95;;;17.70;99.90;;;;;;4860780;29;20410;-83
2021/09/15 05:59:28;;;;;;;74.70;52.95;;;17.70;99.90;;;;;;4854815;29;20072;-84
2021/09/15 06:01:54;;;;;;;72.55;53.15;;;17.80;99.90;;;;;;4860674;29;20410;-83
2021/09/15 06:04:20;;;;;;;76.05;53.50;;;17.80;99.90;;;;;;4844240;29;20050;-83
2021/09/15 06:06:45;;;;;;;70.55;52.75;;;17.80;99.90;;;;;;4842819;29;20703;-79
2021/09/15 06:09:11;;;;;;;71.50;52.35;;;17.80;99.90;;;;;;4841059;29;20042;-79
2021/09/15 06:11:37;;;;;;;74.07;53.15;;;17.90;99.90;;;;;;4844624;29;20049;-78
2021/09/15 06:14:03;;;;;;;73.90;52.13;;;17.90;99.90;;;;;;4859694;29;20379;-75
2021/09/15 06:16:28;;;;;;;70.70;52.13;;;17.90;99.90;;;;;;4860695;29;20114;-77
2021/09/15 06:19:01;;;;;;;70.30;50.38;;;17.90;99.90;;;;;;4860712;29;20097;-77
2021/09/15 06:21:27;;;;;;;67.18;51.35;;;17.90;99.90;;;;;;4830101;29;20076;-76
2021/09/15 06:23:54;;;;;;;69.25;53.50;;;17.90;99.90;;;;;;4860699;29;20079;-76
2021/09/15 06:26:25;;;;;;;73.13;52.00;;;17.90;99.90;;;;;;4841749;29;20571;-78
2021/09/15 06:28:54;;;;;;;73.90;51.13;;;18.00;99.90;;;;;;4854203;29;20049;-78
2021/09/15 06:31:21;;;;;;;74.70;52.67;;;18.00;99.90;;;;;;4855467;29;20069;-78
2021/09/15 06:33:48;;;;;;;69.75;52.90;;;18.00;99.90;;;;;;4857603;29;20053;-78
2021/09/15 06:36:15;;;;;;;72.68;53.63;;;18.00;99.90;;;;;;4856581;29;20733;-78
2021/09/15 06:38:42;;;;;;;69.53;51.13;;;18.00;99.90;;;;;;4856783;29;20439;-78
2021/09/15 06:41:08;;;;;;;70.35;53.20;;;18.00;99.90;;;;;;4841039;29;20063;-78
2021/09/15 06:43:34;;;;;;;67.07;50.15;;;18.10;99.90;;;;;;4854225;29;20046;-78
2021/09/15 06:46:03;;;;;;;71.28;51.47;;;18.10;99.90;;;;;;4825674;29;20046;-78
2021/09/15 06:48:28;;;;;;;73.60;51.65;;;18.10;99.90;;;;;;4858655;29;20037;-79
2021/09/15 06:50:54;;;;;;;74.80;54.33;;;18.10;99.90;;;;;;4856763;29;20045;-79
2021/09/15 06:53:20;;;;;;;70.05;50.72;;;18.10;99.90;;;;;;4856221;29;20045;-79
2021/09/15 06:55:45;;;;;;;75.53;52.83;;;18.10;99.90;;;;;;4857120;29;20045;-79
2021/09/15 06:58:11;;;;;;;74.15;50.97;;;18.10;99.90;;;;;;4839494;29;20081;-78
2021/09/15 07:00:37;;;;;;;73.63;51.92;;;18.10;99.90;;;;;;4855626;29;20152;-73
2021/09/15 07:03:04;;;;;;;77.75;51.63;;;18.20;99.90;;;;;;4856624;29;20046;-74
2021/09/15 07:05:31;;;;;;;75.25;52.53;;;18.20;99.90;;;;;;4858516;29;20042;-73
2021/09/15 07:07:56;;;;;;;75.90;50.47;;;18.20;99.90;;;;;;4857586;29;20048;-74
2021/09/15 07:10:22;;;;;;;78.68;52.10;;;18.20;99.90;;;;;;4857970;29;20049;-78
2021/09/15 07:12:48;;;;;;;79.50;52.50;;;18.30;99.90;;;;;;4855856;29;20061;-85
2021/09/15 07:15:15;;;;;;;82.07;52.80;;;18.30;99.90;;;;;;4857432;29;20037;-86
2021/09/15 07:17:42;;;;;;;84.97;53.95;;;18.30;99.90;;;;;;4855033;29;20045;-87
2021/09/15 07:20:09;;;;;;;78.93;51.20;;;18.30;99.90;;;;;;4858001;29;20494;-86
2021/09/15 07:22:35;;;;;;;77.00;51.80;;;18.10;99.90;;;;;;4841546;29;20499;-85
2021/09/15 07:25:01;;;;;;;79.80;51.25;;;17.90;99.90;;;;;;4841810;29;20060;-87
2021/09/15 07:27:26;;;;;;;80.65;52.20;;;18.40;99.90;;;;;;4839892;29;20037;-81
2021/09/15 07:29:52;;;;;;;75.07;50.50;;;18.40;99.90;;;;;;4855477;29;20496;-80
2021/09/15 07:32:20;;;;;;;82.72;51.60;;;18.40;99.90;;;;;;4840729;29;20038;-80
2021/09/15 07:34:46;;;;;;;82.28;52.58;;;18.40;99.90;;;;;;4841279;29;20053;-80
2021/09/15 07:37:13;;;;;;;86.07;54.05;;;18.50;99.90;;;;;;4841382;29;20069;-80
2021/09/15 07:39:39;;;;;;;82.25;53.45;;;18.50;99.90;;;;;;4841300;29;20038;-80
2021/09/15 07:42:05;;;;;;;81.47;52.40;;;18.50;99.90;;;;;;4856068;29;20041;-80
2021/09/15 07:44:30;;;;;;;85.03;52.88;;;18.50;99.90;;;;;;4856165;29;20052;-80
2021/09/15 07:46:56;;;;;;;77.80;51.55;;;18.50;99.90;;;;;;4856849;29;20132;-80
2021/09/15 07:49:22;;;;;;;83.00;52.88;;;18.60;99.90;;;;;;4840985;29;20053;-80
2021/09/15 07:51:47;;;;;;;80.80;52.05;;;18.60;99.90;;;;;;4841058;29;20053;-80
2021/09/15 07:54:13;;;;;;;85.32;53.78;;;18.70;99.90;;;;;;4840950;29;20060;-80
2021/09/15 07:56:39;;;;;;;79.80;52.17;;;18.70;99.90;;;;;;4810338;29;20451;-80
2021/09/15 07:59:05;;;;;;;84.18;53.88;;;18.70;99.90;;;;;;4839697;29;20089;-80
2021/09/15 08:01:31;;;;;;;79.57;52.55;;;18.70;99.90;;;;;;4841040;29;20075;-80
2021/09/15 08:03:56;;;;;;;84.57;54.92;;;18.70;99.90;;;;;;4855808;29;20558;-80
2021/09/15 08:06:22;;;;;;;80.88;54.42;;;18.70;99.90;;;;;;4840692;29;20045;-80
2021/09/15 08:08:48;;;;;;;86.97;54.65;;;18.70;99.90;;;;;;4857165;29;20418;-80
2021/09/15 08:11:14;;;;;;;85.15;54.83;;;18.70;99.90;;;;;;4856411;29;20073;-80
2021/09/15 08:13:40;;;;;;;79.80;55.05;;;18.80;99.90;;;;;;4857084;29;20053;-80
2021/09/15 08:16:07;;;;;;;83.53;55.35;;;18.80;99.90;;;;;;4855134;29;20048;-80
2021/09/15 08:18:34;;;;;;;88.13;55.42;;;18.80;99.90;;;;;;4856415;29;20095;-80
2021/09/15 08:21:01;;;;;;;86.20;55.40;;;18.90;99.90;;;;;;4855723;29;20499;-80
2021/09/15 08:23:27;;;;;;;83.13;54.30;;;18.90;99.90;;;;;;4825754;29;20049;-80
2021/09/15 08:25:52;;;;;;;86.63;55.38;;;19.00;99.90;;;;;;4855981;29;20109;-80
2021/09/15 08:28:18;;;;;;;82.38;55.38;;;19.00;99.90;;;;;;4839023;29;20049;-80
2021/09/15 08:30:44;;;;;;;86.57;54.60;;;19.10;99.90;;;;;;4858451;29;20041;-80
2021/09/15 08:33:09;;;;;;;81.95;54.22;;;19.20;99.90;;;;;;4858647;29;20052;-81
2021/09/15 08:35:35;;;;;;;91.40;58.65;;;19.20;99.90;;;;;;4859252;29;20041;-80
2021/09/15 08:38:01;;;;;;;82.40;53.10;;;19.20;99.90;;;;;;4861132;29;20045;-80
2021/09/15 08:40:27;;;;;;;77.78;52.45;;;19.30;99.90;;;;;;4859428;29;20051;-80
2021/09/15 08:42:52;;;;;;;80.78;52.20;;;19.30;99.90;;;;;;4844027;29;20041;-81
2021/09/15 08:45:23;;;;;;;83.55;53.05;;;19.30;99.90;;;;;;4858262;29;20049;-80
2021/09/15 08:47:54;;;;;;;85.72;55.35;;;19.30;99.90;;;;;;4843993;29;20046;-80
2021/09/15 08:50:20;;;;;;;87.57;54.80;;;19.40;99.90;;;;;;4844267;29;20053;-80
2021/09/15 08:52:46;;;;;;;84.78;54.78;;;19.40;99.90;;;;;;4859048;29;20034;-80
2021/09/15 08:55:12;;;;;;;85.07;52.53;;;19.40;99.90;;;;;;4858970;29;20092;-81
2021/09/15 08:57:45;;;;;;;85.75;52.42;;;19.50;99.90;;;;;;4857924;29;20049;-79
2021/09/15 09:00:12;;;;;;;84.78;53.88;;;19.40;99.90;;;;;;4828416;29;20057;-80
2021/09/15 09:02:40;;;;;;;80.25;53.30;;;19.50;99.90;;;;;;4858672;29;20048;-80
2021/09/15 09:05:07;;;;;;;81.32;53.88;;;19.40;99.90;;;;;;4857628;29;20048;-77
2021/09/15 09:07:33;;;;;;;87.72;53.13;;;19.40;99.90;;;;;;4845074;29;20045;-77
2021/09/15 09:10:05;;;;;;;83.80;52.47;;;19.50;99.90;;;;;;4842707;29;20483;-77
2021/09/15 09:12:31;;;;;;;88.85;54.35;;;19.50;99.90;;;;;;4858066;29;20086;-79
2021/09/15 09:15:19;;;;;;;87.88;52.63;;;19.50;99.90;;;;;;4858233;29;20066;-77
2021/09/15 09:17:45;;;;;;;84.85;53.20;;;19.50;99.90;;;;;;4857093;29;20054;-81
2021/09/15 09:20:35;;;;;;;88.45;54.38;;;19.50;99.90;;;;;;4843794;29;20044;-86
2021/09/15 09:23:13;;;;;;;89.28;53.80;;;19.50;99.90;;;;;;4859774;29;20410;-86
2021/09/15 09:25:58;;;;;;;85.30;52.95;;;19.50;99.90;;;;;;4842991;29;20041;-81
2021/09/15 09:28:36;;;;;;;89.03;54.20;;;19.60;99.90;;;;;;4843350;29;20097;-81
2021/09/15 09:31:07;;;;;;;91.78;55.75;;;19.60;99.90;;;;;;4843085;29;20078;-81
2021/09/15 09:33:34;;;;;;;88.18;53.45;;;19.50;99.90;;;;;;4844329;29;20409;-86
2021/09/15 09:36:07;;;;;;;95.25;55.38;;;19.60;99.90;;;;;;4859931;29;20147;-86
2021/09/15 09:38:32;;;;;;;85.40;52.15;;;19.60;99.90;;;;;;4859723;29;21486;-87
2021/09/15 09:41:11;;;;;;;82.93;52.15;;;19.60;99.90;;;;;;4858583;29;20109;-81
2021/09/15 09:43:46;;;;;;;86.18;52.13;;;19.60;99.90;;;;;;4843538;29;20052;-80
2021/09/15 09:46:17;;;;;;;91.90;53.38;;;19.60;99.90;;;;;;4858413;29;20049;-81
2021/09/15 09:48:46;;;;;;;85.55;53.15;;;20.10;99.90;;;;;;4843416;29;20044;-81
2021/09/15 09:51:45;;;;;;;87.63;53.33;;;19.60;99.90;;;;;;4859847;29;20065;-81
2021/09/15 09:54:24;;;;;;;86.13;52.33;;;19.70;99.90;;;;;;4844180;29;20584;-86
2021/09/15 09:56:52;;;;;;;84.43;52.33;;;19.70;99.90;;;;;;4858675;29;20136;-87
2021/09/15 09:59:26;;;;;;;81.90;49.85;;;19.80;99.90;;;;;;4859555;29;20054;-86
2021/09/15 10:01:57;;;;;;;86.22;51.72;;;19.80;99.90;;;;;;4844224;29;20048;-87
2021/09/15 10:04:24;;;;;;;80.00;52.15;;;19.90;99.90;;;;;;4859281;29;20116;-87
2021/09/15 10:06:50;;;;;;;82.90;51.15;;;20.00;99.90;;;;;;4843777;29;20073;-87
2021/09/15 10:09:15;;;;;;;73.07;47.70;;;20.00;99.90;;;;;;4859758;29;20073;-86
2021/09/15 10:11:43;;;;;;;75.68;48.13;;;20.00;99.90;;;;;;4857870;29;20090;-86
2021/09/15 10:14:15;;;;;;;79.00;49.00;;;20.10;99.90;;;;;;4843479;29;20045;-86
2021/09/15 10:16:48;;;;;;;72.80;47.30;;;20.10;99.90;;;;;;4858448;29;20133;-86
2021/09/15 10:19:26;;;;;;;73.90;47.42;;;20.00;99.90;;;;;;4843860;29;20045;-86
2021/09/15 10:21:58;;;;;;;79.05;48.47;;;20.00;99.90;;;;;;4859781;29;20049;-86
2021/09/15 10:25:05;;;;;;;78.70;48.00;;;20.00;99.90;;;;;;4846207;29;20076;-87
2021/09/15 10:27:50;;;;;;;76.60;48.90;;;20.00;99.90;;;;;;4859743;29;20144;-86
2021/09/15 10:30:16;;;;;;;69.10;45.93;;;20.10;99.90;;;;;;4859090;29;20129;-86
2021/09/15 10:32:46;;;;;;;69.93;46.95;;;20.10;99.90;;;;;;4842857;29;20136;-86
2021/09/15 10:35:12;;;;;;;71.03;46.22;;;20.10;99.90;;;;;;4843352;29;20041;-86
2021/09/15 10:37:38;;;;;;;68.63;44.17;;;20.10;99.90;;;;;;4857883;29;20109;-87
2021/09/15 10:40:10;;;;;;;62.83;42.03;;;20.10;99.90;;;;;;4858332;29;20042;-87
2021/09/15 10:42:35;;;;;;;57.83;37.47;;;20.20;99.90;;;;;;4842672;29;20053;-82
2021/09/15 10:45:12;;;;;;;56.90;36.33;;;20.20;99.90;;;;;;4856520;29;20037;-81
2021/09/15 10:47:46;;;;;;;50.90;33.22;;;20.20;99.90;;;;;;4855864;29;20136;-81
2021/09/15 10:50:37;;;;;;;47.15;32.00;;;20.20;99.90;;;;;;4873058;29;20072;-78
2021/09/15 10:53:19;;;;;;;49.38;32.55;;;20.10;99.90;;;;;;4855998;29;20061;-78
2021/09/15 10:55:52;;;;;;;48.65;32.75;;;20.10;99.90;;;;;;4857498;29;20456;-81
2021/09/15 10:58:27;;;;;;;52.13;32.33;;;20.00;99.90;;;;;;4839893;29;20060;-81
2021/09/15 11:01:01;;;;;;;56.47;34.92;;;20.00;99.90;;;;;;4857002;29;20419;-82
2021/09/15 11:03:40;;;;;;;54.65;33.88;;;20.00;99.90;;;;;;4857964;29;20124;-81
2021/09/15 11:06:25;;;;;;;51.47;34.38;;;20.00;99.90;;;;;;4856819;29;20446;-82
2021/09/15 11:08:54;;;;;;;53.85;34.75;;;20.00;99.90;;;;;;4827153;29;20136;-86
2021/09/15 11:11:23;;;;;;;58.40;37.03;;;20.00;99.90;;;;;;4841385;29;20193;-83
2021/09/15 11:14:11;;;;;;;56.85;36.47;;;20.00;99.90;;;;;;4840671;29;20045;-82
2021/09/15 11:16:41;;;;;;;58.70;36.00;;;19.70;99.90;;;;;;4842548;29;20057;-83
2021/09/15 11:19:16;;;;;;;61.08;37.55;;;20.10;99.90;;;;;;4841094;29;20045;-81
2021/09/15 11:21:53;;;;;;;54.53;38.00;;;20.10;99.90;;;;;;4856923;29;20121;-82
2021/09/15 11:24:24;;;;;;;58.60;36.85;;;20.30;99.90;;;;;;4841728;29;20058;-82
2021/09/15 11:26:58;;;;;;;56.28;34.67;;;20.30;99.90;;;;;;4840872;29;20109;-82
2021/09/15 11:29:54;;;;;;;53.15;33.80;;;20.30;99.90;;;;;;4855826;29;20113;-83
2021/09/15 11:32:29;;;;;;;47.05;31.70;;;20.30;99.90;;;;;;4855602;29;20076;-81
2021/09/15 11:34:59;;;;;;;43.63;30.10;;;20.30;99.90;;;;;;4856581;29;20129;-78
2021/09/15 11:37:36;;;;;;;45.65;28.90;;;20.30;99.90;;;;;;4856839;29;20352;-81
2021/09/15 11:40:05;;;;;;;45.47;29.25;;;20.30;99.90;;;;;;4856581;29;20045;-82
2021/09/15 11:42:41;;;;;;;51.25;29.45;;;20.40;99.90;;;;;;4857668;29;20053;-79
2021/09/15 11:45:12;;;;;;;47.70;29.73;;;20.40;99.90;;;;;;4826236;29;20046;-78
2021/09/15 11:47:42;;;;;;;44.83;28.38;;;20.50;99.90;;;;;;4856665;29;20049;-77
2021/09/15 11:50:24;;;;;;;45.55;29.17;;;20.60;99.90;;;;;;4839742;29;20041;-78
2021/09/15 11:55:51;;;;;;;46.85;29.90;;;20.60;99.90;;;;;;4856355;29;20064;-77
2021/09/15 11:58:17;;;;;;;48.58;31.85;;;20.70;99.90;;;;;;4855566;29;20065;-83
2021/09/15 12:00:44;;;;;;;51.20;32.05;;;20.70;99.90;;;;;;4855714;29;20587;-82
2021/09/15 12:03:14;;;;;;;45.95;30.60;;;20.70;99.90;;;;;;4840492;29;20084;-81
2021/09/15 12:05:46;;;;;;;45.53;29.23;;;20.80;99.90;;;;;;4855564;29;20045;-80
2021/09/15 12:08:12;;;;;;;41.97;28.65;;;20.80;99.90;;;;;;4839787;29;20418;-79
2021/09/15 12:10:42;;;;;;;42.78;28.42;;;20.80;99.90;;;;;;4856456;29;20052;-77
2021/09/15 12:13:11;;;;;;;42.35;27.77;;;20.90;99.90;;;;;;4857747;29;20084;-78
2021/09/15 12:15:45;;;;;;;38.17;26.27;;;20.90;99.90;;;;;;4855597;29;20081;-78
2021/09/15 12:18:11;;;;;;;42.00;27.70;;;20.90;99.90;;;;;;4856168;29;20049;-79
2021/09/15 12:20:49;;;;;;;44.15;27.02;;;20.90;99.90;;;;;;4855583;29;20128;-78
2021/09/15 12:23:21;;;;;;;38.80;26.27;;;20.90;99.90;;;;;;4856198;29;20041;-79
2021/09/15 12:25:59;;;;;;;39.00;26.67;;;20.90;99.90;;;;;;4856031;29;20372;-78
2021/09/15 12:28:30;;;;;;;41.08;27.90;;;20.90;99.90;;;;;;4854840;29;21322;-78
2021/09/15 12:30:57;;;;;;;40.25;26.98;;;20.80;99.90;;;;;;4856290;29;20076;-77
2021/09/15 12:33:27;;;;;;;39.00;26.70;;;20.90;99.90;;;;;;4855809;29;20141;-77
2021/09/15 12:36:13;;;;;;;42.42;25.52;;;20.90;99.90;;;;;;4856507;29;20049;-79
2021/09/15 12:38:59;;;;;;;40.25;27.23;;;20.80;99.90;;;;;;4856010;29;20038;-76
2021/09/15 12:41:28;;;;;;;43.70;27.27;;;20.90;99.90;;;;;;4854191;29;20064;-76
2021/09/15 12:44:11;;;;;;;41.40;27.17;;;21.00;99.90;;;;;;4855252;29;20578;-80